createdAt,value
2017-03-26T00:00:53.475Z,4.20
2017-03-26T00:01:52.375Z,4.20
2017-03-26T00:02:50.916Z,4.10
2017-03-26T00:03:50.169Z,4.10
2017-03-26T00:04:48.977Z,4.00
2017-03-26T00:05:47.696Z,4.00
2017-03-26T00:06:46.916Z,4.00
2017-03-26T00:07:46.149Z,3.90
2017-03-26T00:08:45.392Z,3.90
2017-03-26T00:09:43.851Z,3.80
2017-03-26T00:10:42.596Z,3.80
2017-03-26T00:11:41.825Z,3.80
2017-03-26T00:12:41.035Z,3.80
2017-03-26T00:13:39.505Z,3.70
2017-03-26T00:14:38.760Z,3.80
2017-03-26T00:15:37.212Z,3.70
2017-03-26T00:16:35.975Z,3.70
2017-03-26T00:17:34.425Z,3.70
2017-03-26T00:18:32.869Z,3.70
2017-03-26T00:19:31.335Z,3.60
2017-03-26T00:20:29.790Z,3.60
2017-03-26T00:21:29.066Z,3.60
2017-03-26T00:22:28.704Z,3.60
2017-03-26T00:23:27.154Z,3.50
2017-03-26T00:24:25.619Z,3.50
2017-03-26T00:25:24.263Z,3.50
2017-03-26T00:26:23.518Z,3.50
2017-03-26T00:27:23.504Z,3.40
2017-03-26T00:28:22.299Z,3.40
2017-03-26T00:29:20.801Z,3.40
2017-03-26T00:30:20.036Z,3.40
2017-03-26T00:31:18.480Z,3.40
2017-03-26T00:32:16.964Z,3.40
2017-03-26T00:33:15.416Z,3.40
2017-03-26T00:34:14.177Z,3.30
2017-03-26T00:35:12.665Z,3.30
2017-03-26T00:36:11.150Z,3.30
2017-03-26T00:37:10.389Z,3.20
2017-03-26T00:38:09.596Z,3.20
2017-03-26T00:39:08.067Z,3.20
2017-03-26T00:40:07.632Z,3.20
2017-03-26T00:41:06.112Z,3.10
2017-03-26T00:42:04.582Z,3.10
2017-03-26T00:43:03.118Z,3.20
2017-03-26T00:44:01.573Z,3.10
2017-03-26T00:45:00.984Z,3.10
2017-03-26T00:45:59.741Z,3.00
2017-03-26T00:46:58.963Z,3.00
2017-03-26T00:47:58.213Z,2.90
2017-03-26T00:48:56.676Z,2.90
2017-03-26T00:49:55.124Z,2.90
2017-03-26T00:50:54.058Z,2.90
2017-03-26T00:51:53.600Z,2.90
2017-03-26T00:52:52.077Z,2.80
2017-03-26T00:53:50.531Z,2.90
2017-03-26T00:54:49.044Z,2.90
2017-03-26T00:55:48.280Z,2.80
2017-03-26T00:56:46.739Z,2.80
2017-03-26T00:57:45.521Z,2.80
2017-03-26T00:58:43.962Z,2.80
2017-03-26T00:59:42.444Z,2.80
2017-03-26T01:00:40.941Z,2.80
2017-03-26T01:01:39.404Z,2.80
2017-03-26T01:02:37.857Z,2.70
2017-03-26T01:03:36.612Z,2.70
2017-03-26T01:04:35.064Z,2.70
2017-03-26T01:05:33.523Z,2.70
2017-03-26T01:06:31.999Z,2.70
2017-03-26T01:07:31.249Z,2.60
2017-03-26T01:08:30.622Z,2.60
2017-03-26T01:09:30.160Z,2.60
2017-03-26T01:10:29.416Z,2.60
2017-03-26T01:11:27.954Z,2.50
2017-03-26T01:12:26.433Z,2.50
2017-03-26T01:13:25.660Z,2.50
2017-03-26T01:14:24.166Z,2.40
2017-03-26T01:15:22.996Z,2.40
2017-03-26T01:16:22.288Z,2.40
2017-03-26T01:17:21.525Z,2.40
2017-03-26T01:18:20.053Z,2.30
2017-03-26T01:19:19.306Z,2.40
2017-03-26T01:20:18.540Z,2.30
2017-03-26T01:21:17.381Z,2.30
2017-03-26T01:22:16.620Z,2.40
2017-03-26T01:23:15.865Z,2.30
2017-03-26T01:24:14.361Z,2.30
2017-03-26T01:25:13.625Z,2.30
2017-03-26T01:26:12.096Z,2.30
2017-03-26T01:27:11.645Z,2.30
2017-03-26T01:28:10.902Z,2.20
2017-03-26T01:29:10.232Z,2.20
2017-03-26T01:30:08.723Z,2.20
2017-03-26T01:31:07.284Z,2.20
2017-03-26T01:32:05.765Z,2.20
2017-03-26T01:33:05.313Z,2.20
2017-03-26T01:34:03.852Z,2.10
2017-03-26T01:35:02.332Z,2.20
2017-03-26T01:36:00.816Z,2.20
2017-03-26T01:36:59.304Z,2.10
2017-03-26T01:37:57.747Z,2.10
2017-03-26T01:38:56.492Z,2.10
2017-03-26T01:39:54.943Z,2.10
2017-03-26T01:40:53.434Z,2.10
2017-03-26T01:41:51.935Z,2.00
2017-03-26T01:42:51.161Z,2.00
2017-03-26T01:43:50.404Z,2.00
2017-03-26T01:44:50.044Z,2.00
2017-03-26T01:45:48.523Z,1.90
2017-03-26T01:46:46.989Z,2.00
2017-03-26T01:47:45.453Z,2.00
2017-03-26T01:48:43.899Z,2.00
2017-03-26T01:49:42.360Z,2.00
2017-03-26T01:50:41.873Z,2.00
2017-03-26T01:51:41.104Z,2.00
2017-03-26T01:52:40.401Z,2.00
2017-03-26T01:53:38.835Z,1.90
2017-03-26T01:54:37.291Z,1.90
2017-03-26T01:55:35.798Z,1.90
2017-03-26T01:56:34.525Z,1.90
2017-03-26T01:57:33.792Z,1.80
2017-03-26T01:58:33.013Z,1.80
2017-03-26T01:59:32.262Z,1.80
2017-03-26T02:00:30.735Z,1.70
2017-03-26T02:01:30.696Z,1.70
2017-03-26T02:02:30.244Z,1.80
2017-03-26T02:03:29.488Z,1.80
2017-03-26T02:04:28.749Z,1.70
2017-03-26T02:05:27.983Z,1.80
2017-03-26T02:06:26.576Z,1.70
2017-03-26T02:07:25.793Z,1.80
2017-03-26T02:08:24.565Z,1.70
2017-03-26T02:09:23.029Z,1.70
2017-03-26T02:10:21.512Z,1.70
2017-03-26T02:11:20.001Z,1.70
2017-03-26T02:12:18.459Z,1.70
2017-03-26T02:13:16.921Z,1.70
2017-03-26T02:14:15.773Z,1.70
2017-03-26T02:15:15.040Z,1.60
2017-03-26T02:16:14.319Z,1.60
2017-03-26T02:17:12.797Z,1.50
2017-03-26T02:18:12.041Z,1.60
2017-03-26T02:19:11.300Z,1.50
2017-03-26T02:20:10.062Z,1.50
2017-03-26T02:21:08.560Z,1.50
2017-03-26T02:22:07.074Z,1.50
2017-03-26T02:23:05.585Z,1.50
2017-03-26T02:24:04.833Z,1.50
2017-03-26T02:25:03.289Z,1.40
2017-03-26T02:26:02.157Z,1.50
2017-03-26T02:27:00.644Z,1.50
2017-03-26T02:27:59.102Z,1.50
2017-03-26T02:28:58.330Z,1.40
2017-03-26T02:29:57.549Z,1.40
2017-03-26T02:30:56.022Z,1.30
2017-03-26T02:31:54.932Z,1.40
2017-03-26T02:32:54.215Z,1.40
2017-03-26T02:33:52.784Z,1.30
2017-03-26T02:34:51.244Z,1.40
2017-03-26T02:35:49.704Z,1.30
2017-03-26T02:36:48.149Z,1.30
2017-03-26T02:37:47.726Z,1.40
2017-03-26T02:38:46.245Z,1.40
2017-03-26T02:39:45.476Z,1.30
2017-03-26T02:40:44.717Z,1.30
2017-03-26T02:41:43.961Z,1.30
2017-03-26T02:42:43.202Z,1.30
2017-03-26T02:43:41.993Z,1.20
2017-03-26T02:44:40.477Z,1.30
2017-03-26T02:45:38.985Z,1.30
2017-03-26T02:46:38.204Z,1.20
2017-03-26T02:47:36.658Z,1.20
2017-03-26T02:48:35.900Z,1.20
2017-03-26T02:49:35.484Z,1.20
2017-03-26T02:50:34.697Z,1.20
2017-03-26T02:51:33.933Z,1.20
2017-03-26T02:52:32.440Z,1.10
2017-03-26T02:53:31.673Z,1.10
2017-03-26T02:54:30.135Z,1.10
2017-03-26T02:55:29.714Z,1.10
2017-03-26T02:56:28.168Z,1.10
2017-03-26T02:57:26.620Z,1.10
2017-03-26T02:58:25.093Z,1.00
2017-03-26T02:59:23.555Z,1.00
2017-03-26T03:00:22.871Z,1.00
2017-03-26T03:01:21.744Z,1.00
2017-03-26T03:02:20.972Z,1.10
2017-03-26T03:03:20.260Z,1.10
2017-03-26T03:04:19.516Z,1.10
2017-03-26T03:05:17.968Z,1.10
2017-03-26T03:06:17.207Z,1.10
2017-03-26T03:07:16.004Z,1.10
2017-03-26T03:08:14.511Z,1.10
2017-03-26T03:09:12.988Z,1.00
2017-03-26T03:10:12.276Z,1.10
2017-03-26T03:11:11.497Z,1.10
2017-03-26T03:12:10.757Z,1.10
2017-03-26T03:13:09.569Z,1.10
2017-03-26T03:14:08.017Z,1.10
2017-03-26T03:15:06.504Z,1.00
2017-03-26T03:16:05.833Z,1.00
2017-03-26T03:17:05.052Z,1.00
2017-03-26T03:18:03.541Z,0.90
2017-03-26T03:19:03.049Z,1.00
2017-03-26T03:20:02.308Z,1.00
2017-03-26T03:21:01.548Z,1.00
2017-03-26T03:22:00.764Z,1.00
2017-03-26T03:22:59.209Z,1.00
2017-03-26T03:23:58.431Z,0.90
2017-03-26T03:24:57.285Z,0.90
2017-03-26T03:25:55.748Z,0.90
2017-03-26T03:26:54.972Z,0.90
2017-03-26T03:27:54.183Z,0.90
2017-03-26T03:28:52.633Z,0.80
2017-03-26T03:29:51.848Z,0.90
2017-03-26T03:30:51.350Z,0.80
2017-03-26T03:31:50.577Z,0.80
2017-03-26T03:32:49.792Z,0.80
2017-03-26T03:33:48.261Z,0.80
2017-03-26T03:34:46.724Z,0.80
2017-03-26T03:35:45.167Z,0.80
2017-03-26T03:36:43.935Z,0.80
2017-03-26T03:37:43.161Z,0.80
2017-03-26T03:38:41.689Z,0.70
2017-03-26T03:39:40.132Z,0.80
2017-03-26T03:40:39.361Z,0.70
2017-03-26T03:41:37.819Z,0.60
2017-03-26T03:42:37.420Z,0.70
2017-03-26T03:43:36.669Z,0.70
2017-03-26T03:44:35.912Z,0.70
2017-03-26T03:45:34.369Z,0.60
2017-03-26T03:46:33.596Z,0.70
2017-03-26T03:47:32.808Z,0.70
2017-03-26T03:48:31.570Z,0.60
2017-03-26T03:49:30.012Z,0.70
2017-03-26T03:50:28.565Z,0.70
2017-03-26T03:51:27.840Z,0.70
2017-03-26T03:52:27.072Z,0.70
2017-03-26T03:53:25.594Z,0.70
2017-03-26T03:54:24.428Z,0.70
2017-03-26T03:55:22.902Z,0.70
2017-03-26T03:56:22.114Z,0.60
2017-03-26T03:57:20.578Z,0.60
2017-03-26T03:58:19.059Z,0.70
2017-03-26T03:59:17.596Z,0.70
2017-03-26T04:00:16.444Z,0.60
2017-03-26T04:01:14.967Z,0.60
2017-03-26T04:02:14.228Z,0.70
2017-03-26T04:03:14.122Z,0.70
2017-03-26T04:04:12.584Z,0.60
2017-03-26T04:05:11.044Z,0.60
2017-03-26T04:06:09.889Z,0.60
2017-03-26T04:07:10.098Z,0.50
2017-03-26T04:08:08.590Z,0.50
2017-03-26T04:09:07.080Z,0.50
2017-03-26T04:10:06.319Z,0.50
2017-03-26T04:11:05.601Z,0.50
2017-03-26T04:12:04.473Z,0.40
2017-03-26T04:13:03.700Z,0.50
2017-03-26T04:14:02.937Z,0.40
2017-03-26T04:15:02.160Z,0.50
2017-03-26T04:16:01.376Z,0.40
2017-03-26T04:17:00.615Z,0.50
2017-03-26T04:17:59.458Z,0.40
2017-03-26T04:18:58.681Z,0.40
2017-03-26T04:19:58.551Z,0.40
2017-03-26T04:20:57.773Z,0.40
2017-03-26T04:21:56.988Z,0.30
2017-03-26T04:22:56.240Z,0.30
2017-03-26T04:23:55.157Z,0.30
2017-03-26T04:24:54.377Z,0.40
2017-03-26T04:25:53.612Z,0.40
2017-03-26T04:26:52.106Z,0.30
2017-03-26T04:27:51.331Z,0.40
2017-03-26T04:28:50.548Z,0.40
2017-03-26T04:29:49.283Z,0.30
2017-03-26T04:30:48.528Z,0.40
2017-03-26T04:31:46.985Z,0.40
2017-03-26T04:32:46.213Z,0.40
2017-03-26T04:33:45.745Z,0.40
2017-03-26T04:34:44.205Z,0.30
2017-03-26T04:35:42.975Z,0.40
2017-03-26T04:36:41.437Z,0.40
2017-03-26T04:37:39.913Z,0.40
2017-03-26T04:38:38.360Z,0.40
2017-03-26T04:39:36.825Z,0.40
2017-03-26T04:40:35.297Z,0.40
2017-03-26T04:41:34.072Z,0.40
2017-03-26T04:42:33.348Z,0.40
2017-03-26T04:43:31.808Z,0.40
2017-03-26T04:44:30.239Z,0.40
2017-03-26T04:45:29.459Z,0.40
2017-03-26T04:46:27.928Z,0.40
2017-03-26T04:47:27.523Z,0.40
2017-03-26T04:48:26.000Z,0.40
2017-03-26T04:49:24.509Z,0.40
2017-03-26T04:50:23.020Z,0.40
2017-03-26T04:51:21.485Z,0.40
2017-03-26T04:52:19.992Z,0.40
2017-03-26T04:53:19.549Z,0.50
2017-03-26T04:54:18.785Z,0.50
2017-03-26T04:55:18.375Z,0.50
2017-03-26T04:56:17.654Z,0.50
2017-03-26T04:57:16.881Z,0.40
2017-03-26T04:58:16.125Z,0.40
2017-03-26T04:59:14.947Z,0.40
2017-03-26T05:00:14.197Z,0.40
2017-03-26T05:01:12.776Z,0.40
2017-03-26T05:02:11.280Z,0.40
2017-03-26T05:03:09.762Z,0.40
2017-03-26T05:04:08.220Z,0.40
2017-03-26T05:05:07.061Z,0.40
2017-03-26T05:06:06.303Z,0.30
2017-03-26T05:07:05.560Z,0.40
2017-03-26T05:08:04.054Z,0.30
2017-03-26T05:09:03.350Z,0.40
2017-03-26T05:10:01.799Z,0.30
2017-03-26T05:11:01.332Z,0.40
2017-03-26T05:12:00.560Z,0.50
2017-03-26T05:12:59.793Z,0.50
2017-03-26T05:13:58.256Z,0.50
2017-03-26T05:14:56.726Z,0.60
2017-03-26T05:15:55.957Z,0.60
2017-03-26T05:16:55.528Z,0.60
2017-03-26T05:17:54.005Z,0.60
2017-03-26T05:18:53.232Z,0.60
2017-03-26T05:19:51.705Z,0.60
2017-03-26T05:20:50.938Z,0.70
2017-03-26T05:21:50.228Z,0.70
2017-03-26T05:22:49.878Z,0.80
2017-03-26T05:23:48.324Z,0.70
2017-03-26T05:24:46.824Z,0.80
2017-03-26T05:25:45.269Z,0.90
2017-03-26T05:26:44.502Z,1.00
2017-03-26T05:27:43.722Z,1.00
2017-03-26T05:28:42.472Z,0.90
2017-03-26T05:29:40.928Z,1.00
2017-03-26T05:30:40.152Z,1.00
2017-03-26T05:31:38.638Z,1.00
2017-03-26T05:32:37.110Z,1.00
2017-03-26T05:33:35.572Z,1.00
2017-03-26T05:34:34.321Z,1.00
2017-03-26T05:35:33.554Z,1.10
2017-03-26T05:36:32.789Z,1.10
2017-03-26T05:37:31.240Z,1.00
2017-03-26T05:38:29.704Z,1.10
2017-03-26T05:39:28.916Z,1.20
2017-03-26T05:40:28.436Z,1.30
2017-03-26T05:41:27.722Z,1.30
2017-03-26T05:42:26.952Z,1.30
2017-03-26T05:43:26.209Z,1.40
2017-03-26T05:44:24.841Z,1.30
2017-03-26T05:45:23.353Z,1.40
2017-03-26T05:46:22.152Z,1.50
2017-03-26T05:47:20.598Z,1.50
2017-03-26T05:48:19.049Z,1.60
2017-03-26T05:49:17.576Z,1.60
2017-03-26T05:50:16.024Z,1.60
2017-03-26T05:51:14.528Z,1.60
2017-03-26T05:52:14.061Z,1.70
2017-03-26T05:53:12.548Z,1.60
2017-03-26T05:54:11.021Z,1.80
2017-03-26T05:55:10.289Z,1.80
2017-03-26T05:56:08.760Z,1.80
2017-03-26T05:57:07.228Z,1.90
2017-03-26T05:58:06.146Z,1.90
2017-03-26T05:59:04.656Z,2.00
2017-03-26T06:00:03.120Z,2.00
2017-03-26T06:01:01.564Z,2.10
2017-03-26T06:02:00.011Z,2.10
2017-03-26T06:02:59.230Z,2.20
2017-03-26T06:03:58.805Z,2.20
2017-03-26T06:04:58.053Z,2.30
2017-03-26T06:05:56.496Z,2.20
2017-03-26T06:06:54.944Z,2.40
2017-03-26T06:07:53.404Z,2.40
2017-03-26T06:08:52.612Z,2.50
2017-03-26T06:09:52.175Z,2.60
2017-03-26T06:10:50.632Z,2.50
2017-03-26T06:11:49.077Z,2.70
2017-03-26T06:12:47.534Z,2.70
2017-03-26T06:13:46.762Z,2.80
2017-03-26T06:14:45.224Z,2.80
2017-03-26T06:15:44.785Z,3.00
2017-03-26T06:16:43.292Z,3.00
2017-03-26T06:17:41.725Z,3.20
2017-03-26T06:18:40.199Z,3.40
2017-03-26T06:19:39.413Z,3.80
2017-03-26T06:20:38.685Z,4.00
2017-03-26T06:21:37.513Z,4.00
2017-03-26T06:22:36.790Z,4.40
2017-03-26T06:23:35.249Z,4.30
2017-03-26T06:24:34.493Z,4.70
2017-03-26T06:25:32.973Z,4.60
2017-03-26T06:26:32.188Z,4.90
2017-03-26T06:27:31.713Z,5.00
2017-03-26T06:28:30.148Z,5.00
2017-03-26T06:29:28.609Z,5.20
2017-03-26T06:30:27.856Z,5.50
2017-03-26T06:31:27.068Z,5.60
2017-03-26T06:32:25.536Z,5.60
2017-03-26T06:33:25.126Z,6.10
2017-03-26T06:34:23.612Z,6.00
2017-03-26T06:35:22.104Z,6.30
2017-03-26T06:36:20.561Z,6.50
2017-03-26T06:37:19.009Z,6.70
2017-03-26T06:38:18.261Z,7.20
2017-03-26T06:39:17.050Z,7.20
2017-03-26T06:40:15.517Z,7.60
2017-03-26T06:41:13.981Z,7.70
2017-03-26T06:42:12.491Z,8.00
2017-03-26T06:43:11.718Z,8.50
2017-03-26T06:44:10.244Z,8.50
2017-03-26T06:45:09.783Z,9.00
2017-03-26T06:46:09.096Z,9.40
2017-03-26T06:47:07.552Z,9.40
2017-03-26T06:48:06.822Z,10.00
2017-03-26T06:49:05.305Z,9.90
2017-03-26T06:50:03.777Z,10.00
2017-03-26T06:51:02.526Z,9.90
2017-03-26T06:52:01.004Z,10.10
2017-03-26T06:52:59.476Z,10.30
2017-03-26T06:53:58.697Z,10.40
2017-03-26T06:54:57.258Z,10.40
2017-03-26T06:55:55.802Z,10.60
2017-03-26T06:56:55.144Z,10.90
2017-03-26T06:57:53.616Z,11.10
2017-03-26T06:58:52.121Z,11.50
2017-03-26T06:59:51.349Z,11.80
2017-03-26T07:00:50.621Z,11.90
2017-03-26T07:01:49.067Z,11.90
2017-03-26T07:02:48.602Z,12.20
2017-03-26T07:03:47.837Z,12.30
2017-03-26T07:04:47.109Z,12.60
2017-03-26T07:05:46.357Z,12.70
2017-03-26T07:06:45.597Z,12.70
2017-03-26T07:07:44.049Z,12.70
2017-03-26T07:08:43.580Z,12.90
2017-03-26T07:09:42.801Z,12.80
2017-03-26T07:10:42.055Z,12.50
2017-03-26T07:11:40.516Z,12.50
2017-03-26T07:12:39.743Z,12.70
2017-03-26T07:13:38.189Z,12.70
2017-03-26T07:14:37.032Z,12.70
2017-03-26T07:15:35.476Z,12.70
2017-03-26T07:16:33.931Z,12.70
2017-03-26T07:17:33.176Z,13.00
2017-03-26T07:18:31.628Z,13.00
2017-03-26T07:19:30.085Z,13.20
2017-03-26T07:20:29.663Z,13.50
2017-03-26T07:21:28.134Z,13.40
2017-03-26T07:22:26.657Z,13.40
2017-03-26T07:23:25.890Z,13.60
2017-03-26T07:24:27.921Z,13.60
2017-03-26T07:25:27.130Z,13.20
2017-03-26T07:26:26.704Z,13.20
2017-03-26T07:27:25.665Z,13.10
2017-03-26T07:28:25.004Z,13.20
2017-03-26T07:29:23.771Z,13.20
2017-03-26T07:30:22.309Z,13.30
2017-03-26T07:31:21.625Z,13.20
2017-03-26T07:32:20.457Z,13.20
2017-03-26T07:33:18.984Z,13.30
2017-03-26T07:34:22.302Z,13.50
2017-03-26T07:35:20.988Z,13.50
2017-03-26T07:36:19.486Z,13.60
2017-03-26T07:37:21.938Z,13.70
2017-03-26T07:38:20.608Z,13.60
2017-03-26T07:39:19.858Z,13.80
2017-03-26T07:40:18.388Z,13.80
2017-03-26T07:41:16.876Z,13.90
2017-03-26T07:42:15.432Z,14.00
2017-03-26T07:43:15.052Z,14.00
2017-03-26T07:44:13.659Z,14.00
2017-03-26T07:45:12.976Z,14.30
2017-03-26T07:46:11.612Z,14.20
2017-03-26T07:47:10.905Z,14.80
2017-03-26T07:48:10.153Z,14.90
2017-03-26T07:49:08.996Z,14.90
2017-03-26T07:50:07.465Z,15.30
2017-03-26T07:51:06.899Z,15.70
2017-03-26T07:52:06.136Z,15.70
2017-03-26T07:53:04.615Z,15.60
2017-03-26T07:54:03.092Z,15.90
2017-03-26T07:55:01.891Z,16.00
2017-03-26T07:56:01.100Z,16.10
2017-03-26T07:57:00.331Z,16.00
2017-03-26T07:57:58.861Z,15.90
2017-03-26T07:58:57.383Z,16.00
2017-03-26T07:59:56.613Z,16.10
2017-03-26T08:00:55.493Z,16.10
2017-03-26T08:01:53.986Z,16.10
2017-03-26T08:02:52.487Z,16.20
2017-03-26T08:03:51.765Z,16.00
2017-03-26T08:04:50.989Z,15.80
2017-03-26T08:05:50.220Z,15.80
2017-03-26T08:06:50.550Z,15.80
2017-03-26T08:07:49.850Z,15.80
2017-03-26T08:08:48.321Z,15.80
2017-03-26T08:09:46.785Z,15.80
2017-03-26T08:10:46.016Z,15.50
2017-03-26T08:11:45.233Z,15.30
2017-03-26T08:12:44.877Z,15.20
2017-03-26T08:13:43.386Z,15.20
2017-03-26T08:14:41.867Z,14.80
2017-03-26T08:15:41.079Z,14.50
2017-03-26T08:16:39.549Z,14.40
2017-03-26T08:17:38.066Z,14.30
2017-03-26T08:18:36.994Z,14.50
2017-03-26T08:19:36.289Z,14.80
2017-03-26T08:20:35.548Z,14.80
2017-03-26T08:21:34.953Z,14.80
2017-03-26T08:22:33.847Z,14.80
2017-03-26T08:23:33.433Z,14.90
2017-03-26T08:24:33.340Z,14.90
2017-03-26T08:25:32.599Z,14.70
2017-03-26T08:26:31.116Z,14.60
2017-03-26T08:27:29.997Z,14.40
2017-03-26T08:28:28.874Z,14.20
2017-03-26T08:29:27.345Z,14.00
2017-03-26T08:30:26.126Z,14.10
2017-03-26T08:31:24.650Z,14.10
2017-03-26T08:32:24.339Z,14.10
2017-03-26T08:33:23.601Z,14.20
2017-03-26T08:34:22.101Z,14.20
2017-03-26T08:35:21.913Z,14.70
2017-03-26T08:36:20.697Z,14.70
2017-03-26T08:37:19.241Z,15.00
2017-03-26T08:38:18.513Z,15.20
2017-03-26T08:39:17.751Z,15.20
2017-03-26T08:40:17.002Z,15.00
2017-03-26T08:41:15.514Z,15.00
2017-03-26T08:42:14.292Z,15.00
2017-03-26T08:43:12.779Z,14.80
2017-03-26T08:44:12.012Z,14.70
2017-03-26T08:45:11.270Z,14.80
2017-03-26T08:46:09.773Z,14.70
2017-03-26T08:47:08.267Z,15.10
2017-03-26T08:48:07.797Z,15.60
2017-03-26T08:49:06.301Z,15.60
2017-03-26T08:50:04.816Z,15.50
2017-03-26T08:51:03.433Z,15.70
2017-03-26T08:52:02.036Z,15.80
2017-03-26T08:53:01.331Z,16.20
2017-03-26T08:54:00.970Z,16.70
2017-03-26T08:55:00.188Z,17.00
2017-03-26T08:55:59.469Z,17.10
2017-03-26T08:56:58.712Z,16.70
2017-03-26T08:57:57.170Z,16.70
2017-03-26T08:58:55.636Z,17.00
2017-03-26T08:59:54.404Z,17.10
2017-03-26T09:00:52.952Z,17.60
2017-03-26T09:01:51.459Z,18.00
2017-03-26T09:02:49.928Z,17.80
2017-03-26T09:03:49.158Z,17.30
2017-03-26T09:04:47.646Z,17.30
2017-03-26T09:05:46.517Z,17.40
2017-03-26T09:06:44.978Z,17.30
2017-03-26T09:07:43.525Z,17.20
2017-03-26T09:08:41.983Z,17.50
2017-03-26T09:09:40.489Z,18.00
2017-03-26T09:10:38.945Z,18.20
2017-03-26T09:11:38.473Z,18.40
2017-03-26T09:12:37.762Z,18.60
2017-03-26T09:13:37.017Z,18.80
2017-03-26T09:14:35.475Z,18.80
2017-03-26T09:15:33.989Z,18.70
2017-03-26T09:16:33.225Z,18.50
2017-03-26T09:17:32.830Z,18.60
2017-03-26T09:18:32.773Z,18.50
2017-03-26T09:19:32.005Z,18.30
2017-03-26T09:20:30.571Z,18.20
2017-03-26T09:21:29.666Z,18.10
2017-03-26T09:22:28.196Z,17.90
2017-03-26T09:23:27.011Z,18.00
2017-03-26T09:24:25.533Z,17.70
2017-03-26T09:25:24.105Z,17.30
2017-03-26T09:26:22.905Z,17.20
2017-03-26T09:27:21.449Z,17.20
2017-03-26T09:28:19.894Z,17.40
2017-03-26T09:29:18.696Z,17.30
2017-03-26T09:30:17.729Z,17.20
2017-03-26T09:31:17.029Z,17.50
2017-03-26T09:32:16.812Z,17.40
2017-03-26T09:33:15.318Z,17.30
2017-03-26T09:34:13.825Z,17.50
2017-03-26T09:35:14.067Z,17.40
2017-03-26T09:36:12.592Z,17.40
2017-03-26T09:37:11.061Z,17.00
2017-03-26T09:38:10.302Z,16.90
2017-03-26T09:39:08.796Z,16.90
2017-03-26T09:40:07.300Z,17.00
2017-03-26T09:41:06.693Z,16.90
2017-03-26T09:42:05.189Z,17.20
2017-03-26T09:43:03.649Z,17.20
2017-03-26T09:44:02.133Z,17.30
2017-03-26T09:45:00.618Z,17.40
2017-03-26T09:46:00.003Z,17.50
2017-03-26T09:46:59.571Z,17.60
2017-03-26T09:47:58.050Z,17.60
2017-03-26T09:48:57.297Z,17.60
2017-03-26T09:49:55.785Z,17.50
2017-03-26T09:50:54.277Z,17.80
2017-03-26T09:51:53.539Z,18.10
2017-03-26T09:52:52.513Z,18.10
2017-03-26T09:53:52.146Z,18.40
2017-03-26T09:54:51.430Z,18.50
2017-03-26T09:55:50.833Z,18.50
2017-03-26T09:56:50.063Z,18.50
2017-03-26T09:57:48.525Z,18.40
2017-03-26T09:58:48.913Z,18.60
2017-03-26T09:59:47.379Z,18.70
2017-03-26T10:00:45.850Z,18.90
2017-03-26T10:01:44.335Z,18.90
2017-03-26T10:02:43.568Z,18.60
2017-03-26T10:03:42.817Z,18.20
2017-03-26T10:04:42.358Z,18.20
2017-03-26T10:05:41.644Z,18.10
2017-03-26T10:06:40.126Z,18.00
2017-03-26T10:07:38.629Z,18.10
2017-03-26T10:08:37.917Z,18.00
2017-03-26T10:09:37.280Z,18.10
2017-03-26T10:10:36.936Z,18.10
2017-03-26T10:11:36.184Z,18.30
2017-03-26T10:12:34.685Z,18.20
2017-03-26T10:13:33.907Z,17.80
2017-03-26T10:14:32.357Z,17.80
2017-03-26T10:15:31.588Z,18.20
2017-03-26T10:16:30.392Z,18.10
2017-03-26T10:17:30.261Z,17.80
2017-03-26T10:18:28.860Z,17.80
2017-03-26T10:19:27.330Z,17.40
2017-03-26T10:20:25.805Z,17.20
2017-03-26T10:21:24.856Z,16.90
2017-03-26T10:22:23.721Z,16.70
2017-03-26T10:23:23.059Z,16.80
2017-03-26T10:24:22.465Z,17.00
2017-03-26T10:25:21.726Z,17.20
2017-03-26T10:26:20.438Z,17.20
2017-03-26T10:27:19.696Z,17.40
2017-03-26T10:28:19.237Z,17.60
2017-03-26T10:29:18.509Z,18.00
2017-03-26T10:30:17.013Z,17.90
2017-03-26T10:31:15.652Z,18.30
2017-03-26T10:32:14.136Z,18.70
2017-03-26T10:33:12.609Z,18.90
2017-03-26T10:34:13.038Z,19.10
2017-03-26T10:35:11.585Z,19.10
2017-03-26T10:36:10.057Z,19.10
2017-03-26T10:37:08.567Z,19.10
2017-03-26T10:38:07.064Z,19.40
2017-03-26T10:39:05.537Z,19.20
2017-03-26T10:40:04.395Z,19.30
2017-03-26T10:41:03.637Z,18.90
2017-03-26T10:42:02.096Z,18.80
2017-03-26T10:43:01.507Z,18.30
2017-03-26T10:43:59.983Z,18.30
2017-03-26T10:44:59.238Z,17.70
2017-03-26T10:45:58.869Z,17.60
2017-03-26T10:46:57.335Z,17.60
2017-03-26T10:47:55.941Z,17.90
2017-03-26T10:48:55.161Z,18.30
2017-03-26T10:49:53.646Z,18.30
2017-03-26T10:50:52.112Z,18.40
2017-03-26T10:51:50.891Z,18.60
2017-03-26T10:52:49.359Z,18.70
2017-03-26T10:53:47.832Z,18.90
2017-03-26T10:54:47.062Z,19.30
2017-03-26T10:55:46.302Z,18.80
2017-03-26T10:56:45.547Z,18.20
2017-03-26T10:57:44.333Z,18.10
2017-03-26T10:58:42.792Z,17.60
2017-03-26T10:59:41.259Z,17.30
2017-03-26T11:00:39.778Z,16.50
2017-03-26T11:01:39.890Z,15.80
2017-03-26T11:02:39.154Z,16.00
2017-03-26T11:03:37.936Z,15.90
2017-03-26T11:04:37.467Z,16.30
2017-03-26T11:05:35.920Z,16.20
2017-03-26T11:06:34.385Z,16.60
2017-03-26T11:07:34.145Z,16.80
2017-03-26T11:08:32.601Z,16.70
2017-03-26T11:09:32.359Z,16.80
2017-03-26T11:10:31.637Z,16.60
2017-03-26T11:11:30.633Z,16.60
2017-03-26T11:12:29.113Z,16.60
2017-03-26T11:13:27.578Z,16.70
2017-03-26T11:14:26.088Z,16.90
2017-03-26T11:15:26.862Z,17.20
2017-03-26T11:16:25.360Z,17.20
2017-03-26T11:17:24.773Z,17.30
2017-03-26T11:18:23.993Z,17.40
2017-03-26T11:19:23.249Z,17.80
2017-03-26T11:20:21.767Z,17.70
2017-03-26T11:21:20.625Z,17.50
2017-03-26T11:22:20.661Z,17.80
2017-03-26T11:23:19.252Z,17.80
2017-03-26T11:24:17.775Z,18.00
2017-03-26T11:25:17.037Z,17.30
2017-03-26T11:26:15.544Z,17.20
2017-03-26T11:27:16.388Z,17.30
2017-03-26T11:28:14.860Z,17.20
2017-03-26T11:29:13.332Z,17.20
2017-03-26T11:30:12.591Z,17.30
2017-03-26T11:31:11.871Z,17.10
2017-03-26T11:32:10.337Z,17.00
2017-03-26T11:33:09.077Z,16.80
2017-03-26T11:34:08.353Z,16.70
2017-03-26T11:35:06.805Z,16.70
2017-03-26T11:36:05.298Z,16.60
2017-03-26T11:37:03.796Z,16.60
2017-03-26T11:38:02.296Z,16.80
2017-03-26T11:39:02.652Z,16.50
2017-03-26T11:40:01.205Z,16.50
2017-03-26T11:41:00.464Z,15.80
2017-03-26T11:41:59.676Z,15.60
2017-03-26T11:42:58.208Z,15.50
2017-03-26T11:43:57.444Z,15.20
2017-03-26T11:44:57.072Z,15.10
2017-03-26T11:45:55.544Z,15.10
2017-03-26T11:46:54.008Z,15.30
2017-03-26T11:47:53.264Z,15.00
2017-03-26T11:48:52.491Z,14.80
2017-03-26T11:49:50.974Z,14.80
2017-03-26T11:50:50.503Z,14.20
2017-03-26T11:51:49.020Z,14.10
2017-03-26T11:52:47.491Z,13.80
2017-03-26T11:53:46.782Z,13.60
2017-03-26T11:54:46.037Z,13.60
2017-03-26T11:55:45.275Z,13.80
2017-03-26T11:56:44.885Z,14.10
2017-03-26T11:57:44.120Z,14.40
2017-03-26T11:58:43.359Z,14.70
2017-03-26T11:59:42.612Z,14.90
2017-03-26T12:00:41.247Z,14.80
2017-03-26T12:01:40.505Z,14.90
2017-03-26T12:02:39.355Z,14.80
2017-03-26T12:03:37.813Z,14.90
2017-03-26T12:04:36.322Z,14.90
2017-03-26T12:05:35.577Z,14.90
2017-03-26T12:06:34.106Z,14.90
2017-03-26T12:07:32.575Z,14.80
2017-03-26T12:08:32.237Z,15.20
2017-03-26T12:09:30.693Z,15.10
2017-03-26T12:10:29.241Z,15.30
2017-03-26T12:11:28.527Z,15.20
2017-03-26T12:12:26.972Z,14.90
2017-03-26T12:13:26.269Z,14.90
2017-03-26T12:14:25.536Z,14.80
2017-03-26T12:15:24.790Z,14.90
2017-03-26T12:16:24.052Z,14.90
2017-03-26T12:17:23.362Z,14.90
2017-03-26T12:18:21.868Z,14.90
2017-03-26T12:19:20.429Z,15.00
2017-03-26T12:20:19.180Z,15.00
2017-03-26T12:21:17.716Z,15.20
2017-03-26T12:22:17.754Z,15.30
2017-03-26T12:23:16.216Z,15.20
2017-03-26T12:24:14.733Z,15.40
2017-03-26T12:25:13.490Z,15.40
2017-03-26T12:26:13.269Z,15.40
2017-03-26T12:27:11.832Z,15.30
2017-03-26T12:28:10.418Z,15.50
2017-03-26T12:29:08.952Z,15.70
2017-03-26T12:30:07.431Z,15.90
2017-03-26T12:31:06.731Z,16.00
2017-03-26T12:32:06.300Z,16.00
2017-03-26T12:33:04.817Z,15.90
2017-03-26T12:34:04.086Z,16.10
2017-03-26T12:35:02.547Z,16.10
2017-03-26T12:36:01.825Z,16.00
2017-03-26T12:37:01.135Z,15.50
2017-03-26T12:38:00.689Z,15.40
2017-03-26T12:38:59.200Z,15.30
2017-03-26T12:39:58.457Z,15.30
2017-03-26T12:40:56.992Z,15.20
2017-03-26T12:41:55.470Z,15.40
2017-03-26T12:42:53.933Z,15.50
2017-03-26T12:43:53.739Z,15.60
2017-03-26T12:44:52.966Z,15.70
2017-03-26T12:45:51.436Z,15.70
2017-03-26T12:46:49.955Z,15.60
2017-03-26T12:47:48.485Z,15.40
2017-03-26T12:48:47.777Z,15.60
2017-03-26T12:49:47.497Z,15.60
2017-03-26T12:50:46.029Z,15.60
2017-03-26T12:51:44.504Z,15.80
2017-03-26T12:52:43.008Z,15.90